createdAt,value
2018-03-15T00:00:48.609Z,23.23
2018-03-15T00:03:21.841Z,23.27
2018-03-15T00:05:50.175Z,22.60
2018-03-15T00:08:17.785Z,21.80
2018-03-15T00:10:46.161Z,19.47
2018-03-15T00:13:14.498Z,19.67
2018-03-15T00:15:42.352Z,22.13
2018-03-15T00:18:09.908Z,21.73
2018-03-15T00:20:37.477Z,18.83
2018-03-15T00:23:05.090Z,19.80
2018-03-15T00:25:32.648Z,25.63
2018-03-15T00:28:00.229Z,24.80
2018-03-15T00:30:29.358Z,23.53
2018-03-15T00:32:57.021Z,19.37
2018-03-15T00:35:24.571Z,23.20
2018-03-15T00:37:52.180Z,21.37
2018-03-15T00:40:19.756Z,20.20
2018-03-15T00:42:47.336Z,27.90
2018-03-15T00:45:14.948Z,19.93
2018-03-15T00:47:43.628Z,23.23
2018-03-15T00:50:11.964Z,25.03
2018-03-15T00:52:39.543Z,19.23
2018-03-15T00:55:07.906Z,18.60
2018-03-15T00:57:37.000Z,26.40
2018-03-15T01:00:04.554Z,24.30
2018-03-15T01:04:55.378Z,23.47
2018-03-15T01:07:22.951Z,23.40
2018-03-15T01:09:50.617Z,22.93
2018-03-15T01:12:18.304Z,24.73
2018-03-15T01:14:46.640Z,26.77
2018-03-15T01:17:14.249Z,21.27
2018-03-15T01:19:41.788Z,24.87
2018-03-15T01:22:10.133Z,26.30
2018-03-15T01:24:37.743Z,28.70
2018-03-15T01:27:05.308Z,25.37
2018-03-15T01:29:32.911Z,23.60
2018-03-15T01:32:00.488Z,27.53
2018-03-15T01:34:28.103Z,21.50
2018-03-15T01:36:55.696Z,29.83
2018-03-15T01:39:23.283Z,24.47
2018-03-15T01:41:51.655Z,30.10
2018-03-15T01:44:20.010Z,26.30
2018-03-15T01:46:47.572Z,22.10
2018-03-15T01:49:15.199Z,27.60
2018-03-15T01:51:42.789Z,25.60
2018-03-15T01:54:11.867Z,25.13
2018-03-15T01:56:39.434Z,28.20
2018-03-15T01:59:07.027Z,24.93
2018-03-15T02:01:35.400Z,27.07
2018-03-15T02:04:03.719Z,27.00
2018-03-15T02:06:31.656Z,23.93
2018-03-15T02:08:59.991Z,25.20
2018-03-15T02:11:27.563Z,25.20
2018-03-15T02:13:56.668Z,30.60
2018-03-15T02:16:24.242Z,24.97
2018-03-15T02:18:52.631Z,27.50
2018-03-15T02:21:20.192Z,22.37
2018-03-15T02:23:47.785Z,29.00
2018-03-15T02:26:15.385Z,27.80
2018-03-15T02:28:43.759Z,24.90
2018-03-15T02:31:11.314Z,26.70
2018-03-15T02:33:39.701Z,26.23
2018-03-15T02:36:08.041Z,23.47
2018-03-15T02:38:35.635Z,25.10
2018-03-15T02:41:04.008Z,26.53
2018-03-15T02:43:31.607Z,26.30
2018-03-15T02:45:59.190Z,22.80
2018-03-15T02:48:26.768Z,24.67
2018-03-15T02:50:54.371Z,24.43
2018-03-15T02:53:21.944Z,26.80
2018-03-15T02:55:49.533Z,29.37
2018-03-15T02:58:17.100Z,27.93
2018-03-15T03:00:44.708Z,30.17
2018-03-15T03:03:12.273Z,36.73
2018-03-15T03:05:39.860Z,28.40
2018-03-15T03:08:07.735Z,26.57
2018-03-15T03:10:35.313Z,24.33
2018-03-15T03:13:02.912Z,25.50
2018-03-15T03:15:30.477Z,25.00
2018-03-15T03:17:58.095Z,29.73
2018-03-15T03:20:25.674Z,28.67
2018-03-15T03:22:54.089Z,27.20
2018-03-15T03:25:23.546Z,27.97
2018-03-15T03:27:51.986Z,23.93
2018-03-15T03:30:21.569Z,24.97
2018-03-15T03:32:49.258Z,22.63
2018-03-15T03:35:16.827Z,24.23
2018-03-15T03:37:46.539Z,25.87
2018-03-15T03:40:14.219Z,28.40
2018-03-15T03:42:41.796Z,25.60
2018-03-15T03:45:10.455Z,28.63
2018-03-15T03:47:38.013Z,29.03
2018-03-15T03:50:05.572Z,24.57
2018-03-15T03:52:33.191Z,27.73
2018-03-15T03:55:00.789Z,29.37
2018-03-15T03:57:28.354Z,29.23
2018-03-15T03:59:57.010Z,35.17
2018-03-15T04:02:24.567Z,30.30
2018-03-15T04:04:52.144Z,28.83
2018-03-15T04:07:22.467Z,35.17
2018-03-15T04:09:50.290Z,27.80
2018-03-15T04:12:17.857Z,26.40
2018-03-15T04:14:45.450Z,29.63
2018-03-15T04:17:13.023Z,26.10
2018-03-15T04:19:40.639Z,29.57
2018-03-15T04:22:08.269Z,32.33
2018-03-15T04:24:36.859Z,30.17
2018-03-15T04:27:04.462Z,28.73
2018-03-15T04:29:32.057Z,33.97
2018-03-15T04:32:00.395Z,29.73
2018-03-15T04:34:27.976Z,30.83
2018-03-15T04:36:57.184Z,28.47
2018-03-15T04:39:24.837Z,35.57
2018-03-15T04:41:52.448Z,30.63
2018-03-15T04:44:20.047Z,29.57
2018-03-15T04:46:47.650Z,32.07
2018-03-15T04:49:15.210Z,34.00
2018-03-15T04:51:42.814Z,29.83
2018-03-15T04:54:10.383Z,32.07
2018-03-15T04:56:38.871Z,31.90
2018-03-15T04:59:06.737Z,32.23
2018-03-15T05:01:34.385Z,34.00
2018-03-15T05:04:03.109Z,29.40
2018-03-15T05:06:31.013Z,32.77
2018-03-15T05:08:58.581Z,33.60
2018-03-15T05:11:26.155Z,34.83
2018-03-15T05:13:53.753Z,29.73
2018-03-15T05:16:22.072Z,30.40
2018-03-15T05:18:49.699Z,30.63
2018-03-15T05:21:17.264Z,31.03
2018-03-15T05:23:44.884Z,31.80
2018-03-15T05:26:12.493Z,35.40
2018-03-15T05:28:40.095Z,37.10
2018-03-15T05:31:07.773Z,40.63
2018-03-15T05:33:36.906Z,37.10
2018-03-15T05:36:04.612Z,34.13
2018-03-15T05:38:32.986Z,37.80
2018-03-15T05:41:02.774Z,41.83
2018-03-15T05:43:31.344Z,34.93
2018-03-15T05:45:58.951Z,35.70
2018-03-15T05:48:27.121Z,40.93
2018-03-15T05:50:54.687Z,34.17
2018-03-15T05:53:22.253Z,37.33
2018-03-15T05:55:50.640Z,42.63
2018-03-15T05:58:18.986Z,35.40
2018-03-15T06:00:46.578Z,35.27
2018-03-15T06:03:14.964Z,38.23
2018-03-15T06:05:43.304Z,37.60
2018-03-15T06:08:10.877Z,40.80
2018-03-15T06:10:38.496Z,39.30
2018-03-15T06:13:06.072Z,39.17
2018-03-15T06:15:33.655Z,41.70
2018-03-15T06:18:01.512Z,39.33
2018-03-15T06:20:29.104Z,33.67
2018-03-15T06:22:57.437Z,40.33
2018-03-15T06:25:25.050Z,38.30
2018-03-15T06:27:52.632Z,40.10
2018-03-15T06:30:20.187Z,43.77
2018-03-15T06:32:48.056Z,41.70
2018-03-15T06:35:15.642Z,39.07
2018-03-15T06:37:43.203Z,37.47
2018-03-15T06:40:10.821Z,40.23
2018-03-15T06:42:38.387Z,41.80
2018-03-15T06:45:06.119Z,43.50
2018-03-15T06:47:34.483Z,42.00
2018-03-15T06:50:02.791Z,37.73
2018-03-15T06:52:30.369Z,49.17
2018-03-15T06:54:58.020Z,40.73
2018-03-15T06:57:25.623Z,39.37
2018-03-15T06:59:54.707Z,35.90
2018-03-15T07:02:22.283Z,38.30
2018-03-15T07:04:49.901Z,41.40
2018-03-15T07:07:17.507Z,39.30
2018-03-15T07:09:45.842Z,50.97
2018-03-15T07:12:13.434Z,40.93
2018-03-15T07:14:42.507Z,39.90
2018-03-15T07:17:10.099Z,40.20
2018-03-15T07:19:38.486Z,41.77
2018-03-15T07:22:06.848Z,40.37
2018-03-15T07:24:34.664Z,44.63
2018-03-15T07:27:02.235Z,39.83
2018-03-15T07:29:29.881Z,48.40
2018-03-15T07:31:57.506Z,37.10
2018-03-15T07:34:25.854Z,32.47
2018-03-15T07:36:53.463Z,35.93
2018-03-15T07:39:22.117Z,34.77
2018-03-15T07:41:54.638Z,36.00
2018-03-15T07:44:23.017Z,43.57
2018-03-15T07:46:52.329Z,33.53
2018-03-15T07:49:20.036Z,35.97
2018-03-15T07:51:48.426Z,31.67
2018-03-15T07:54:16.768Z,31.87
2018-03-15T07:56:44.533Z,36.03
2018-03-15T07:59:12.914Z,34.27
2018-03-15T08:01:40.481Z,32.00
2018-03-15T08:04:08.071Z,33.83
2018-03-15T08:06:35.683Z,32.97
2018-03-15T08:09:03.261Z,34.70
2018-03-15T08:11:30.883Z,34.07
2018-03-15T08:13:58.436Z,34.13
2018-03-15T08:16:26.007Z,34.10
2018-03-15T08:18:53.713Z,33.00
2018-03-15T08:21:22.057Z,35.80
2018-03-15T08:23:49.631Z,34.13
2018-03-15T08:26:17.207Z,31.63
2018-03-15T08:28:45.532Z,30.90
2018-03-15T08:31:13.092Z,27.00
2018-03-15T08:33:40.711Z,35.77
2018-03-15T08:36:09.040Z,33.20
2018-03-15T08:38:36.620Z,23.67
2018-03-15T08:41:04.611Z,33.50
2018-03-15T08:43:32.952Z,37.60
2018-03-15T08:46:00.576Z,34.37
2018-03-15T08:48:28.188Z,45.87
2018-03-15T08:50:55.832Z,29.77
2018-03-15T08:53:23.412Z,30.03
2018-03-15T08:55:52.045Z,31.63
2018-03-15T08:58:19.643Z,29.93
2018-03-15T09:00:48.001Z,31.93
2018-03-15T09:03:15.638Z,26.37
2018-03-15T09:05:43.202Z,29.20
2018-03-15T09:08:10.873Z,31.23
2018-03-15T09:10:40.490Z,31.80
2018-03-15T09:13:08.066Z,29.77
2018-03-15T09:15:35.627Z,29.80
2018-03-15T09:18:03.233Z,30.50
2018-03-15T09:20:30.805Z,28.20
2018-03-15T09:22:58.370Z,31.47
2018-03-15T09:25:26.253Z,27.97
2018-03-15T09:27:53.832Z,31.30
2018-03-15T09:30:22.908Z,38.07
2018-03-15T09:32:51.296Z,26.00
2018-03-15T09:35:18.892Z,36.57
2018-03-15T09:37:46.687Z,28.63
2018-03-15T09:40:14.425Z,32.43
2018-03-15T09:42:42.015Z,32.23
2018-03-15T09:45:09.618Z,32.50
2018-03-15T09:47:37.973Z,31.17
2018-03-15T09:50:05.692Z,29.37
2018-03-15T09:52:33.604Z,27.73
2018-03-15T09:55:01.951Z,27.60
2018-03-15T09:57:29.527Z,33.00
2018-03-15T09:59:57.146Z,28.43
2018-03-15T10:02:24.742Z,27.97
2018-03-15T10:04:52.348Z,35.10
2018-03-15T10:07:19.969Z,27.03
2018-03-15T10:09:47.565Z,29.73
2018-03-15T10:12:15.897Z,29.20
2018-03-15T10:14:43.747Z,30.57
2018-03-15T10:17:11.359Z,27.27
2018-03-15T10:19:39.734Z,27.60
2018-03-15T10:22:07.319Z,27.90
2018-03-15T10:24:34.924Z,31.40
2018-03-15T10:27:02.502Z,25.07
2018-03-15T10:29:30.996Z,27.30
2018-03-15T10:31:59.361Z,34.67
2018-03-15T10:34:27.717Z,27.70
2018-03-15T10:36:56.020Z,28.47
2018-03-15T10:39:24.363Z,27.67
2018-03-15T10:41:51.937Z,26.67
2018-03-15T10:44:19.557Z,28.27
2018-03-15T10:46:47.148Z,33.57
2018-03-15T10:49:14.778Z,39.23
2018-03-15T10:51:42.374Z,35.90
2018-03-15T10:54:09.935Z,32.00
2018-03-15T10:56:37.564Z,30.97
2018-03-15T10:59:05.175Z,29.10
2018-03-15T11:01:39.222Z,27.63
2018-03-15T11:04:11.606Z,25.43
2018-03-15T11:06:40.956Z,28.50
2018-03-15T11:12:15.767Z,21.43
2018-03-15T11:14:43.351Z,28.33
2018-03-15T11:17:10.930Z,27.77
2018-03-15T11:19:39.599Z,36.93
2018-03-15T11:22:07.960Z,39.00
2018-03-15T11:24:35.553Z,33.00
2018-03-15T11:27:03.951Z,36.23
2018-03-15T11:29:31.559Z,28.57
2018-03-15T11:31:59.172Z,31.93
2018-03-15T11:34:26.858Z,31.47
2018-03-15T11:36:54.472Z,29.37
2018-03-15T11:39:22.813Z,29.50
2018-03-15T11:41:50.418Z,27.90
2018-03-15T11:44:18.038Z,29.23
2018-03-15T11:46:45.758Z,27.90
2018-03-15T11:49:13.380Z,32.00
2018-03-15T11:51:40.958Z,27.70
2018-03-15T11:54:09.313Z,26.10
2018-03-15T11:56:36.924Z,36.40
2018-03-15T11:59:04.544Z,25.77
2018-03-15T12:01:32.907Z,26.43
2018-03-15T12:04:01.298Z,31.00
2018-03-15T12:06:29.676Z,27.43
2018-03-15T12:08:58.036Z,28.00
2018-03-15T12:11:25.640Z,29.80
2018-03-15T12:13:53.262Z,26.03
2018-03-15T12:16:22.360Z,25.00
2018-03-15T12:18:50.142Z,26.73
2018-03-15T12:21:18.790Z,26.73
2018-03-15T12:23:46.383Z,26.80
2018-03-15T12:26:14.761Z,26.73
2018-03-15T12:28:43.135Z,29.10
2018-03-15T12:31:10.693Z,25.17
2018-03-15T12:33:39.024Z,27.43
2018-03-15T12:36:06.661Z,26.67
2018-03-15T12:38:34.226Z,29.20
2018-03-15T12:41:01.807Z,30.03
2018-03-15T12:43:29.675Z,27.83
2018-03-15T12:45:57.226Z,23.57
2018-03-15T12:48:25.116Z,26.43
2018-03-15T12:50:53.335Z,26.10
2018-03-15T12:53:21.707Z,24.37
2018-03-15T12:55:50.046Z,25.07
2018-03-15T12:58:17.671Z,27.47
2018-03-15T13:00:45.256Z,26.30
2018-03-15T13:03:12.813Z,25.17
2018-03-15T13:05:40.441Z,31.43
2018-03-15T13:08:08.360Z,28.73
2018-03-15T13:10:35.925Z,24.87
2018-03-15T13:13:03.494Z,25.97
2018-03-15T13:15:31.854Z,26.40
2018-03-15T13:18:00.222Z,23.57
2018-03-15T13:20:27.950Z,29.00
2018-03-15T13:22:55.557Z,24.80
2018-03-15T13:25:23.144Z,32.77
2018-03-15T13:27:51.482Z,26.20
2018-03-15T13:30:19.113Z,26.20
2018-03-15T13:32:46.770Z,28.70
2018-03-15T13:35:14.339Z,28.23
2018-03-15T13:37:41.943Z,29.60
2018-03-15T13:40:09.539Z,23.80
2018-03-15T13:42:37.176Z,26.50
2018-03-15T13:45:05.551Z,28.60
2018-03-15T13:47:33.929Z,30.93
2018-03-15T13:50:02.258Z,32.50
2018-03-15T13:52:29.843Z,35.70
2018-03-15T13:58:02.086Z,31.90
2018-03-15T14:06:56.124Z,31.70
2018-03-15T14:24:32.113Z,33.50
2018-03-15T14:27:02.639Z,32.40
2018-03-15T14:29:31.071Z,32.60
2018-03-15T14:31:58.971Z,35.97
2018-03-15T14:34:26.548Z,30.17
2018-03-15T14:36:54.928Z,34.60
2018-03-15T14:39:23.313Z,30.30
2018-03-15T14:41:51.144Z,29.27
2018-03-15T14:44:19.117Z,24.63
2018-03-15T14:46:46.680Z,26.30
2018-03-15T14:49:14.581Z,28.30
2018-03-15T14:51:42.926Z,25.80
2018-03-15T14:54:10.478Z,26.87
2018-03-15T14:56:38.241Z,29.23
2018-03-15T14:59:05.798Z,35.73
2018-03-15T15:01:33.356Z,38.63
2018-03-15T15:04:01.004Z,28.90
2018-03-15T15:06:28.580Z,30.37
2018-03-15T15:08:56.183Z,29.40
2018-03-15T15:11:23.767Z,29.93
2018-03-15T15:13:51.333Z,31.10
2018-03-15T15:16:19.182Z,29.60
2018-03-15T15:18:46.735Z,39.33
2018-03-15T15:21:14.323Z,40.27
2018-03-15T15:23:41.984Z,32.10
2018-03-15T15:26:09.676Z,33.17
2018-03-15T15:28:38.786Z,30.43
2018-03-15T15:31:07.170Z,29.10
2018-03-15T15:33:35.521Z,30.43
2018-03-15T15:36:03.090Z,32.20
2018-03-15T15:38:31.568Z,30.40
2018-03-15T15:40:59.908Z,28.73
2018-03-15T15:43:27.493Z,34.33
2018-03-15T15:45:55.357Z,30.40
2018-03-15T15:48:22.927Z,31.87
2018-03-15T15:50:51.273Z,29.90
2018-03-15T15:53:19.566Z,30.07
2018-03-15T15:55:47.147Z,32.73
2018-03-15T15:58:15.490Z,33.00
2018-03-15T16:00:43.098Z,31.70
2018-03-15T16:03:10.673Z,28.90
2018-03-15T16:05:38.267Z,33.10
2018-03-15T16:08:06.239Z,29.23
2018-03-15T16:10:33.811Z,30.40
2018-03-15T16:13:02.359Z,31.53
2018-03-15T16:15:30.250Z,31.37
2018-03-15T16:17:57.821Z,29.30
2018-03-15T16:20:25.386Z,35.27
2018-03-15T16:22:54.038Z,33.10
2018-03-15T16:25:21.615Z,33.97
2018-03-15T16:27:49.202Z,34.00
2018-03-15T16:30:17.595Z,34.00
2018-03-15T16:32:45.478Z,36.57
2018-03-15T16:35:13.055Z,35.90
2018-03-15T16:37:41.038Z,36.60
2018-03-15T16:40:08.613Z,37.50
2018-03-15T16:42:37.044Z,42.77
2018-03-15T16:45:04.634Z,32.17
2018-03-15T16:47:32.321Z,33.57
2018-03-15T16:50:00.655Z,35.17
2018-03-15T16:52:28.454Z,37.27
2018-03-15T16:54:56.039Z,36.90
2018-03-15T16:57:23.647Z,36.93
2018-03-15T16:59:51.265Z,38.00
2018-03-15T17:02:18.861Z,41.83
2018-03-15T17:04:46.433Z,40.50
2018-03-15T17:07:14.025Z,36.80
2018-03-15T17:09:42.345Z,36.73
2018-03-15T17:12:09.917Z,38.70
2018-03-15T17:14:38.447Z,37.10
2018-03-15T17:17:06.862Z,42.17
2018-03-15T17:19:34.462Z,42.63
2018-03-15T17:22:03.122Z,42.13
2018-03-15T17:24:30.685Z,39.83
2018-03-15T17:26:58.248Z,43.53
2018-03-15T17:29:25.853Z,44.80
2018-03-15T17:31:54.213Z,46.63
2018-03-15T17:34:22.578Z,45.20
2018-03-15T17:36:50.913Z,43.17
2018-03-15T17:39:18.490Z,46.50
2018-03-15T17:41:46.086Z,44.40
2018-03-15T17:44:14.431Z,45.80
2018-03-15T17:46:42.023Z,45.00
2018-03-15T17:49:10.410Z,45.97
2018-03-15T17:51:38.787Z,42.23
2018-03-15T17:54:07.200Z,43.07
2018-03-15T17:56:34.888Z,47.93
2018-03-15T17:59:02.475Z,45.50
2018-03-15T18:01:30.848Z,47.17
2018-03-15T18:03:58.813Z,48.03
2018-03-15T18:06:27.202Z,44.10
2018-03-15T18:08:55.553Z,45.60
2018-03-15T18:11:23.389Z,46.50
2018-03-15T18:13:50.947Z,45.40
2018-03-15T18:16:18.543Z,47.43
2018-03-15T18:18:46.159Z,48.50
2018-03-15T18:21:13.749Z,46.27
2018-03-15T18:23:41.319Z,50.33
2018-03-15T18:26:08.930Z,46.13
2018-03-15T18:28:36.498Z,44.93
2018-03-15T18:31:04.067Z,48.70
2018-03-15T18:33:31.664Z,46.20
2018-03-15T18:36:00.745Z,49.67
2018-03-15T18:38:28.352Z,50.73
2018-03-15T18:40:56.219Z,46.30
2018-03-15T18:43:23.795Z,50.40
2018-03-15T18:45:51.409Z,46.37
2018-03-15T18:48:20.181Z,49.90
2018-03-15T18:50:47.772Z,49.87
2018-03-15T18:53:16.110Z,47.30
2018-03-15T18:55:43.967Z,46.20
2018-03-15T18:58:11.580Z,47.03
2018-03-15T19:00:39.142Z,49.93
2018-03-15T19:03:06.763Z,49.17
2018-03-15T19:05:34.662Z,52.13
2018-03-15T19:08:02.995Z,48.60
2018-03-15T19:10:30.966Z,45.73
2018-03-15T19:12:58.540Z,47.40
2018-03-15T19:15:26.876Z,46.97
2018-03-15T19:17:54.764Z,51.70
2018-03-15T19:20:27.208Z,52.30
2018-03-15T19:22:55.136Z,42.67
2018-03-15T19:25:22.709Z,50.87
2018-03-15T19:27:51.051Z,54.33
2018-03-15T19:30:18.673Z,45.97
2018-03-15T19:32:46.258Z,50.10
2018-03-15T19:35:13.853Z,51.17
2018-03-15T19:37:42.171Z,53.47
2018-03-15T19:40:09.737Z,49.67
2018-03-15T19:42:37.501Z,49.90
2018-03-15T19:45:05.110Z,44.03
2018-03-15T19:47:32.882Z,47.00
2018-03-15T19:50:01.402Z,50.40
2018-03-15T19:52:28.975Z,48.10
2018-03-15T19:54:56.546Z,47.50
2018-03-15T19:57:24.371Z,48.07
2018-03-15T19:59:51.940Z,45.13
2018-03-15T20:02:19.498Z,48.17
2018-03-15T20:04:47.100Z,50.93
2018-03-15T20:07:14.683Z,46.57
2018-03-15T20:09:43.023Z,48.20
2018-03-15T20:12:10.619Z,52.17
2018-03-15T20:14:38.979Z,50.13
2018-03-15T20:17:08.060Z,50.73
2018-03-15T20:19:36.585Z,48.07
2018-03-15T20:22:04.932Z,46.50
2018-03-15T20:24:33.362Z,45.53
2018-03-15T20:27:01.953Z,46.20
2018-03-15T20:29:29.546Z,46.67
2018-03-15T20:31:57.127Z,53.10
2018-03-15T20:34:25.488Z,50.53
2018-03-15T20:36:53.068Z,48.23
2018-03-15T20:39:27.559Z,45.20
2018-03-15T20:41:55.386Z,53.50
2018-03-15T20:44:24.733Z,49.50
2018-03-15T20:46:58.249Z,52.73
2018-03-15T20:49:26.992Z,54.40
2018-03-15T20:51:54.597Z,48.00
2018-03-15T20:54:23.213Z,49.30
2018-03-15T20:56:50.802Z,53.23
2018-03-15T20:59:18.428Z,50.67
2018-03-15T21:01:46.353Z,53.13
2018-03-15T21:04:15.433Z,54.73
2018-03-15T21:06:43.777Z,53.93
2018-03-15T21:09:11.676Z,53.90
2018-03-15T21:11:39.261Z,51.20
2018-03-15T21:14:07.618Z,55.93
2018-03-15T21:16:35.647Z,53.20
2018-03-15T21:19:03.205Z,60.03
2018-03-15T21:21:30.781Z,58.77
2018-03-15T21:23:58.650Z,62.20
2018-03-15T21:26:26.228Z,56.23
2018-03-15T21:28:53.910Z,54.37
2018-03-15T21:31:22.591Z,53.77
2018-03-15T21:33:50.948Z,50.47
2018-03-15T21:36:18.524Z,59.93
2018-03-15T21:38:48.530Z,56.03
2018-03-15T21:41:16.183Z,63.13
2018-03-15T21:43:44.526Z,58.77
2018-03-15T21:46:12.414Z,59.87
2018-03-15T21:48:40.000Z,62.20
2018-03-15T21:51:07.582Z,57.00
2018-03-15T21:53:36.334Z,61.00
2018-03-15T21:56:03.953Z,64.87
2018-03-15T21:58:31.552Z,57.93
2018-03-15T22:00:59.965Z,60.20
2018-03-15T22:03:28.308Z,59.83
2018-03-15T22:05:55.885Z,60.60
2018-03-15T22:08:23.480Z,54.97
2018-03-15T22:10:51.037Z,59.97
2018-03-15T22:13:19.506Z,56.40
2018-03-15T22:15:47.530Z,58.67
2018-03-15T22:18:15.094Z,57.43
2018-03-15T22:20:42.653Z,55.80
2018-03-15T22:23:10.269Z,59.07
2018-03-15T22:25:38.160Z,61.53
2018-03-15T22:28:05.736Z,55.70
2018-03-15T22:30:33.334Z,54.30
2018-03-15T22:33:01.685Z,59.13
2018-03-15T22:35:30.352Z,56.40
2018-03-15T22:37:57.943Z,55.43
2018-03-15T22:40:26.567Z,59.47
2018-03-15T22:42:54.139Z,56.60
2018-03-15T22:45:21.701Z,55.70
2018-03-15T22:47:49.301Z,55.27
2018-03-15T22:50:17.644Z,59.33
2018-03-15T22:52:45.516Z,54.27
2018-03-15T22:55:13.082Z,52.40
2018-03-15T22:57:41.407Z,57.50
2018-03-15T23:00:09.329Z,55.00
2018-03-15T23:02:36.858Z,55.60
2018-03-15T23:05:04.422Z,68.30
2018-03-15T23:07:32.296Z,58.77
2018-03-15T23:09:59.863Z,55.87
2018-03-15T23:12:27.431Z,54.47
2018-03-15T23:14:55.031Z,55.13
2018-03-15T23:17:22.606Z,53.33
2018-03-15T23:19:50.181Z,58.00
2018-03-15T23:22:18.053Z,60.33
2018-03-15T23:24:45.612Z,58.23
2018-03-15T23:27:13.186Z,58.13
2018-03-15T23:29:41.020Z,58.67
2018-03-15T23:32:08.745Z,57.67
2018-03-15T23:34:37.066Z,65.13
2018-03-15T23:37:04.951Z,65.60
2018-03-15T23:39:32.537Z,61.37
2018-03-15T23:42:00.870Z,61.77
2018-03-15T23:44:28.482Z,60.40
2018-03-15T23:46:56.854Z,67.10
2018-03-15T23:49:25.180Z,64.27
2018-03-15T23:51:52.757Z,58.30
2018-03-15T23:54:20.371Z,60.80
2018-03-15T23:56:47.955Z,62.80
2018-03-15T23:59:15.529Z,61.10
